createdAt,value
2022-11-17T00:01:29.538Z,12.67
2022-11-17T00:03:56.952Z,11.67
2022-11-17T00:06:24.416Z,11.57
2022-11-17T00:08:53.652Z,13.03
2022-11-17T00:11:22.408Z,11.97
2022-11-17T00:14:07.380Z,10.96
2022-11-17T00:16:34.785Z,11.87
2022-11-17T00:19:19.522Z,11.40
2022-11-17T00:21:46.894Z,13.23
2022-11-17T00:24:17.240Z,11.60
2022-11-17T00:27:00.013Z,12.70
2022-11-17T00:29:27.379Z,11.43
2022-11-17T00:32:13.002Z,12.77
2022-11-17T00:34:40.724Z,12.37
2022-11-17T00:37:09.507Z,13.43
2022-11-17T00:39:37.387Z,12.77
2022-11-17T00:42:06.367Z,10.77
2022-11-17T00:44:33.739Z,12.13
2022-11-17T00:47:01.171Z,11.90
2022-11-17T00:49:28.607Z,12.53
2022-11-17T00:51:57.803Z,12.20
2022-11-17T00:54:25.387Z,14.30
2022-11-17T00:56:52.899Z,12.13
2022-11-17T00:59:21.698Z,11.10
2022-11-17T01:01:49.220Z,12.87
2022-11-17T01:04:17.089Z,11.90
2022-11-17T01:06:46.315Z,12.47
2022-11-17T01:09:16.775Z,12.80
2022-11-17T01:11:44.958Z,15.70
2022-11-17T01:14:14.106Z,12.27
2022-11-17T01:16:43.049Z,14.00
2022-11-17T01:19:12.830Z,12.93
2022-11-17T01:21:40.284Z,11.73
2022-11-17T01:24:08.368Z,12.00
2022-11-17T01:26:37.416Z,10.90
2022-11-17T01:29:06.068Z,10.97
2022-11-17T01:31:35.836Z,11.57
2022-11-17T01:34:04.649Z,11.20
2022-11-17T01:36:56.005Z,12.03
2022-11-17T01:39:24.141Z,10.83
2022-11-17T01:41:51.957Z,12.43
2022-11-17T01:44:54.905Z,10.67
2022-11-17T01:47:27.010Z,11.23
2022-11-17T01:50:01.455Z,10.13
2022-11-17T01:52:32.314Z,12.03
2022-11-17T01:55:01.400Z,10.40
2022-11-17T01:57:33.939Z,11.73
2022-11-17T02:00:05.244Z,10.23
2022-11-17T02:02:34.076Z,10.90
2022-11-17T02:05:11.455Z,11.00
2022-11-17T02:07:41.132Z,10.60
2022-11-17T02:10:09.288Z,11.77
2022-11-17T02:12:37.722Z,11.57
2022-11-17T02:15:06.561Z,11.07
2022-11-17T02:17:37.605Z,12.00
2022-11-17T02:20:11.281Z,11.17
2022-11-17T02:23:23.008Z,10.87
2022-11-17T02:26:09.620Z,11.60
2022-11-17T02:28:43.546Z,10.83
2022-11-17T02:31:22.055Z,11.53
2022-11-17T02:37:43.170Z,11.33
2022-11-17T02:40:14.788Z,11.37
2022-11-17T02:43:01.844Z,10.93
2022-11-17T02:45:37.157Z,12.40
2022-11-17T02:48:08.261Z,12.73
2022-11-17T02:50:35.963Z,13.13
2022-11-17T02:53:04.830Z,12.37
2022-11-17T02:55:35.766Z,12.10
2022-11-17T02:58:03.148Z,12.00
2022-11-17T03:00:35.035Z,12.67
2022-11-17T03:03:20.725Z,12.23
2022-11-17T03:05:58.170Z,13.03
2022-11-17T03:08:33.152Z,13.87
2022-11-17T03:11:03.568Z,12.57
2022-11-17T03:13:43.086Z,12.20
2022-11-17T03:16:20.924Z,12.13
2022-11-17T03:18:59.305Z,12.00
2022-11-17T03:21:30.029Z,12.93
2022-11-17T03:24:04.954Z,11.03
2022-11-17T03:26:35.852Z,12.33
2022-11-17T03:29:08.539Z,13.13
2022-11-17T03:31:39.299Z,11.93
2022-11-17T03:34:12.473Z,12.20
2022-11-17T03:36:45.209Z,12.63
2022-11-17T03:39:16.622Z,14.13
2022-11-17T03:41:48.906Z,12.00
2022-11-17T03:44:19.426Z,12.03
2022-11-17T03:46:50.137Z,11.60
2022-11-17T03:49:24.542Z,12.10
2022-11-17T03:51:52.306Z,11.90
2022-11-17T03:54:19.857Z,11.23
2022-11-17T03:56:54.643Z,11.00
2022-11-17T03:59:28.070Z,11.30
2022-11-17T04:01:57.030Z,11.53
2022-11-17T04:04:25.013Z,13.50
2022-11-17T04:06:53.368Z,13.47
2022-11-17T04:09:24.381Z,12.40
2022-11-17T04:12:09.647Z,13.80
2022-11-17T04:14:54.470Z,12.13
2022-11-17T04:17:23.530Z,12.70
2022-11-17T04:19:50.920Z,12.73
2022-11-17T04:22:18.313Z,17.83
2022-11-17T04:24:45.752Z,11.87
2022-11-17T04:27:30.777Z,13.67
2022-11-17T04:29:58.173Z,12.47
2022-11-17T04:32:26.863Z,11.97
2022-11-17T04:34:54.249Z,14.57
2022-11-17T04:37:22.832Z,12.90
2022-11-17T04:39:50.474Z,14.40
2022-11-17T04:42:17.005Z,14.27
2022-11-17T04:44:44.401Z,13.33
2022-11-17T04:47:11.767Z,13.13
2022-11-17T04:49:40.506Z,14.00
2022-11-17T04:52:07.913Z,14.07
2022-11-17T04:54:35.312Z,14.43
2022-11-17T04:57:02.701Z,15.53
2022-11-17T04:59:30.100Z,14.83
2022-11-17T05:02:02.512Z,15.20
2022-11-17T05:04:50.262Z,15.47
2022-11-17T05:07:19.021Z,14.90
2022-11-17T05:09:46.440Z,15.10
2022-11-17T05:12:31.355Z,14.87
2022-11-17T05:14:58.710Z,14.47
2022-11-17T05:17:25.156Z,16.07
2022-11-17T05:19:52.589Z,15.43
2022-11-17T05:22:41.844Z,14.30
2022-11-17T05:25:10.228Z,14.97
2022-11-17T05:27:38.081Z,14.77
2022-11-17T05:30:08.128Z,15.57
2022-11-17T05:32:35.641Z,14.53
2022-11-17T05:35:03.040Z,13.70
2022-11-17T05:37:31.750Z,15.57
2022-11-17T05:39:59.117Z,16.03
2022-11-17T05:42:26.537Z,15.97
2022-11-17T05:44:53.898Z,14.90
2022-11-17T05:47:21.284Z,14.73
2022-11-17T05:49:48.673Z,15.67
2022-11-17T05:52:16.270Z,15.17
2022-11-17T05:54:45.137Z,15.07
2022-11-17T05:57:17.750Z,13.67
2022-11-17T05:59:50.315Z,16.40
2022-11-17T06:02:24.510Z,15.37
2022-11-17T06:04:52.470Z,14.77
2022-11-17T06:07:20.567Z,15.37
2022-11-17T06:09:49.460Z,15.13
2022-11-17T06:12:17.072Z,14.23
2022-11-17T06:14:44.465Z,14.60
2022-11-17T06:17:22.138Z,14.77
2022-11-17T06:19:56.383Z,15.53
2022-11-17T06:22:26.170Z,15.37
2022-11-17T06:24:55.700Z,16.90
2022-11-17T06:27:23.480Z,14.70
2022-11-17T06:29:51.291Z,15.13
2022-11-17T06:32:20.802Z,14.13
2022-11-17T06:34:55.612Z,14.17
2022-11-17T06:37:23.988Z,16.40
2022-11-17T06:39:51.619Z,15.33
2022-11-17T06:42:40.326Z,14.40
2022-11-17T06:45:08.964Z,12.73
2022-11-17T06:47:36.351Z,16.63
2022-11-17T06:50:04.070Z,14.37
2022-11-17T06:52:31.477Z,15.27
2022-11-17T06:54:58.906Z,15.07
2022-11-17T06:57:27.606Z,13.73
2022-11-17T06:59:55.036Z,15.00
2022-11-17T07:02:22.482Z,13.93
2022-11-17T07:04:49.870Z,14.40
2022-11-17T07:07:17.293Z,12.50
2022-11-17T07:09:44.713Z,16.27
2022-11-17T07:12:12.092Z,14.53
2022-11-17T07:14:40.872Z,14.53
2022-11-17T07:17:08.538Z,11.93
2022-11-17T07:19:35.939Z,14.30
2022-11-17T07:22:04.597Z,12.50
2022-11-17T07:24:32.057Z,13.37
2022-11-17T07:26:59.473Z,14.73
2022-11-17T07:29:28.783Z,12.33
2022-11-17T07:31:57.494Z,13.60
2022-11-17T07:34:24.889Z,13.47
2022-11-17T07:36:52.279Z,13.00
2022-11-17T07:39:21.743Z,12.47
2022-11-17T07:41:49.472Z,13.23
2022-11-17T07:44:16.860Z,12.37
2022-11-17T07:46:44.260Z,13.03
2022-11-17T07:49:12.969Z,12.43
2022-11-17T07:51:40.398Z,15.23
2022-11-17T07:54:07.898Z,11.57
2022-11-17T07:56:35.513Z,12.80
2022-11-17T07:59:02.880Z,12.47
2022-11-17T08:01:30.502Z,11.73
2022-11-17T08:03:58.446Z,11.93
2022-11-17T08:06:27.324Z,10.57
2022-11-17T08:08:54.763Z,12.33
2022-11-17T08:11:22.307Z,12.40
2022-11-17T08:13:50.835Z,12.20
2022-11-17T08:16:18.744Z,11.10
2022-11-17T08:18:51.806Z,12.27
2022-11-17T08:21:19.662Z,13.20
2022-11-17T08:23:51.134Z,12.97
2022-11-17T08:26:19.182Z,10.97
2022-11-17T08:28:46.581Z,12.30
2022-11-17T08:31:14.444Z,12.07
2022-11-17T08:33:41.813Z,11.07
2022-11-17T08:36:09.647Z,11.77
2022-11-17T08:38:38.618Z,11.00
2022-11-17T08:41:09.318Z,10.90
2022-11-17T08:43:36.738Z,11.80
2022-11-17T08:46:04.409Z,12.10
2022-11-17T08:48:33.141Z,13.47
2022-11-17T08:51:06.352Z,13.67
2022-11-17T08:53:33.984Z,11.77
2022-11-17T08:56:01.661Z,13.13
2022-11-17T08:58:30.390Z,14.00
2022-11-17T09:01:03.844Z,12.27
2022-11-17T09:03:32.662Z,13.30
2022-11-17T09:06:02.080Z,12.43
2022-11-17T09:08:45.152Z,15.40
2022-11-17T09:11:17.094Z,13.63
2022-11-17T09:13:46.742Z,12.73
2022-11-17T09:16:15.384Z,13.37
2022-11-17T09:18:43.007Z,13.90
2022-11-17T09:21:13.419Z,13.33
2022-11-17T09:23:40.897Z,14.13
2022-11-17T09:26:10.286Z,13.10
2022-11-17T09:28:38.023Z,13.27
2022-11-17T09:31:11.812Z,14.57
2022-11-17T09:33:39.733Z,13.87
2022-11-17T09:36:08.259Z,14.80
2022-11-17T09:38:36.190Z,16.27
2022-11-17T09:41:12.823Z,15.03
2022-11-17T09:43:45.987Z,14.93
2022-11-17T09:46:21.505Z,14.10
2022-11-17T09:48:54.660Z,13.57
2022-11-17T09:51:26.097Z,15.17
2022-11-17T09:53:58.378Z,15.70
2022-11-17T09:56:28.073Z,15.37
2022-11-17T09:58:59.715Z,15.10
2022-11-17T10:01:29.926Z,16.13
2022-11-17T10:04:00.023Z,15.60
2022-11-17T10:06:29.714Z,15.20
2022-11-17T10:09:02.802Z,17.07
2022-11-17T10:11:35.095Z,14.47
2022-11-17T10:14:04.953Z,16.30
2022-11-17T10:16:33.710Z,15.23
2022-11-17T10:19:03.304Z,16.43
2022-11-17T10:21:31.325Z,15.60
2022-11-17T10:24:00.389Z,15.83
2022-11-17T10:26:28.079Z,15.37
2022-11-17T10:29:09.052Z,14.50
2022-11-17T10:31:46.152Z,16.33
2022-11-17T10:34:37.065Z,17.53
2022-11-17T10:37:28.182Z,15.67
2022-11-17T10:40:23.658Z,14.63
2022-11-17T10:43:00.729Z,15.73
2022-11-17T10:45:28.987Z,16.70
2022-11-17T10:48:11.541Z,14.10
2022-11-17T10:50:38.961Z,15.47
2022-11-17T10:53:30.464Z,20.93
2022-11-17T10:56:04.806Z,13.80
2022-11-17T10:58:33.803Z,13.70
2022-11-17T11:01:04.009Z,12.70
2022-11-17T11:03:34.991Z,12.87
2022-11-17T11:06:10.769Z,12.47
2022-11-17T11:08:50.912Z,13.53
2022-11-17T11:11:35.896Z,12.70
2022-11-17T11:14:13.107Z,13.70
2022-11-17T11:16:46.682Z,13.40
2022-11-17T11:19:19.844Z,14.77
2022-11-17T11:22:06.064Z,14.13
2022-11-17T11:24:42.690Z,13.50
2022-11-17T11:27:29.131Z,13.37
2022-11-17T11:30:03.272Z,14.00
2022-11-17T11:32:39.950Z,13.60
2022-11-17T11:35:34.702Z,14.00
2022-11-17T11:38:16.516Z,13.63
2022-11-17T11:40:52.776Z,13.30
2022-11-17T11:43:33.898Z,14.23
2022-11-17T11:46:08.985Z,14.37
2022-11-17T11:48:40.808Z,15.13
2022-11-17T11:51:15.716Z,16.30
2022-11-17T11:53:50.583Z,14.03
2022-11-17T11:56:21.927Z,14.00
2022-11-17T11:58:55.038Z,12.33
2022-11-17T12:01:24.527Z,12.80
2022-11-17T12:03:59.065Z,11.97
2022-11-17T12:06:43.317Z,12.60
2022-11-17T12:09:26.105Z,13.13
2022-11-17T12:12:11.609Z,14.43
2022-11-17T12:14:39.514Z,12.60
2022-11-17T12:17:23.191Z,13.00
2022-11-17T12:19:57.215Z,14.53
2022-11-17T12:22:50.250Z,12.70
2022-11-17T12:25:20.120Z,11.13
2022-11-17T12:27:49.611Z,12.93
2022-11-17T12:30:55.757Z,12.40
2022-11-17T12:33:24.379Z,12.47
2022-11-17T12:36:31.075Z,12.07
2022-11-17T12:39:01.441Z,12.60
2022-11-17T12:42:06.502Z,13.27
2022-11-17T12:44:59.144Z,11.13
2022-11-17T12:47:29.017Z,13.27
2022-11-17T12:50:33.039Z,12.30
2022-11-17T12:53:24.297Z,12.40
2022-11-17T12:56:08.757Z,12.37
2022-11-17T12:58:46.845Z,12.07
2022-11-17T13:01:21.102Z,13.33
2022-11-17T13:03:55.786Z,13.07
2022-11-17T13:06:38.491Z,15.33
2022-11-17T13:09:07.429Z,10.97
2022-11-17T13:11:36.453Z,13.83
2022-11-17T13:14:09.443Z,13.87
2022-11-17T13:16:38.407Z,13.07
2022-11-17T13:19:30.573Z,17.43
2022-11-17T13:22:00.994Z,12.73
2022-11-17T13:24:34.012Z,12.77
2022-11-17T13:27:07.208Z,11.90
2022-11-17T13:29:35.230Z,13.13
2022-11-17T13:32:12.575Z,16.80
2022-11-17T13:34:47.505Z,12.80
2022-11-17T13:37:18.001Z,13.47
2022-11-17T13:39:59.503Z,12.60
2022-11-17T13:42:32.125Z,11.83
2022-11-17T13:45:02.815Z,12.03
2022-11-17T13:47:46.360Z,13.07
2022-11-17T13:50:37.981Z,12.00
2022-11-17T13:53:19.403Z,12.07
2022-11-17T13:55:48.009Z,12.13
2022-11-17T13:58:28.412Z,12.07
2022-11-17T14:00:57.961Z,13.27
2022-11-17T14:03:44.353Z,13.43
2022-11-17T14:06:13.706Z,13.23
2022-11-17T14:08:42.783Z,13.77
2022-11-17T14:11:21.121Z,13.43
2022-11-17T14:13:51.935Z,13.10
2022-11-17T14:16:27.773Z,13.53
2022-11-17T14:19:00.987Z,17.80
2022-11-17T14:21:29.253Z,10.73
2022-11-17T14:24:11.090Z,13.17
2022-11-17T14:26:44.431Z,13.53
2022-11-17T14:29:14.225Z,15.27
2022-11-17T14:31:41.709Z,14.03
2022-11-17T14:34:09.111Z,14.57
2022-11-17T14:36:37.788Z,13.33
2022-11-17T14:39:12.154Z,13.40
2022-11-17T14:41:40.783Z,13.90
2022-11-17T14:44:08.344Z,14.33
2022-11-17T14:46:37.339Z,14.00
2022-11-17T14:49:05.478Z,13.13
2022-11-17T14:51:33.515Z,13.50
2022-11-17T14:54:01.509Z,13.53
2022-11-17T14:56:28.860Z,13.90
2022-11-17T14:58:59.000Z,14.20
2022-11-17T15:01:30.323Z,13.03
2022-11-17T15:04:15.356Z,13.93
2022-11-17T15:06:48.819Z,15.63
2022-11-17T15:09:16.569Z,18.63
2022-11-17T15:11:44.019Z,15.30
2022-11-17T15:14:11.728Z,15.00
2022-11-17T15:16:39.130Z,15.63
2022-11-17T15:19:07.874Z,15.80
2022-11-17T15:21:35.286Z,13.70
2022-11-17T15:24:03.342Z,16.70
2022-11-17T15:26:30.746Z,14.87
2022-11-17T15:29:01.151Z,16.17
2022-11-17T15:31:29.100Z,16.50
2022-11-17T15:33:56.491Z,16.10
2022-11-17T15:36:25.402Z,15.93
2022-11-17T15:38:53.949Z,16.17
2022-11-17T15:41:21.383Z,15.63
2022-11-17T15:43:48.919Z,17.30
2022-11-17T15:46:18.208Z,16.43
2022-11-17T15:48:47.217Z,16.97
2022-11-17T15:51:16.775Z,17.93
2022-11-17T15:53:47.233Z,16.70
2022-11-17T15:56:16.778Z,17.50
2022-11-17T15:58:44.577Z,16.33
2022-11-17T16:01:14.035Z,18.80
2022-11-17T16:03:42.844Z,17.27
2022-11-17T16:06:11.009Z,20.03
2022-11-17T16:08:39.415Z,19.13
2022-11-17T16:11:10.359Z,19.87
2022-11-17T16:13:38.876Z,17.23
2022-11-17T16:16:07.416Z,19.43
2022-11-17T16:18:37.554Z,19.97
2022-11-17T16:21:06.751Z,18.50
2022-11-17T16:23:38.633Z,17.93
2022-11-17T16:26:06.218Z,17.83
2022-11-17T16:28:35.070Z,18.77
2022-11-17T16:31:13.212Z,18.00
2022-11-17T16:33:40.664Z,16.80
2022-11-17T16:36:09.319Z,17.90
2022-11-17T16:38:42.318Z,19.43
2022-11-17T16:41:13.260Z,17.93
2022-11-17T16:43:44.713Z,18.77
2022-11-17T16:46:16.927Z,19.27
2022-11-17T16:48:44.311Z,17.27
2022-11-17T16:51:11.698Z,18.57
2022-11-17T16:53:39.089Z,19.77
2022-11-17T16:56:08.302Z,18.73
2022-11-17T16:58:36.232Z,18.13
2022-11-17T17:01:12.673Z,17.80
2022-11-17T17:03:41.438Z,19.53
2022-11-17T17:06:10.844Z,17.77
2022-11-17T17:08:38.621Z,18.23
2022-11-17T17:11:07.948Z,17.07
2022-11-17T17:13:36.403Z,18.50
2022-11-17T17:16:04.617Z,18.30
2022-11-17T17:18:33.821Z,18.63
2022-11-17T17:21:01.501Z,18.47
2022-11-17T17:23:29.584Z,16.20
2022-11-17T17:26:04.798Z,17.70
2022-11-17T17:28:32.864Z,18.50
2022-11-17T17:31:00.637Z,19.17
2022-11-17T17:33:28.571Z,19.60
2022-11-17T17:36:02.354Z,18.70
2022-11-17T17:38:29.818Z,18.30
2022-11-17T17:40:57.307Z,19.40
2022-11-17T17:43:24.730Z,19.70
2022-11-17T17:45:53.790Z,18.00
2022-11-17T17:48:21.170Z,19.80
2022-11-17T17:50:49.146Z,21.27
2022-11-17T17:53:17.863Z,19.20
2022-11-17T17:55:45.249Z,19.53
2022-11-17T17:58:12.653Z,20.67
2022-11-17T18:00:40.158Z,21.00
2022-11-17T18:03:07.606Z,22.73
2022-11-17T18:05:35.020Z,19.27
2022-11-17T18:08:04.684Z,22.20
2022-11-17T18:10:33.402Z,23.47
2022-11-17T18:13:00.788Z,20.20
2022-11-17T18:15:28.452Z,21.37
2022-11-17T18:17:55.816Z,19.87
2022-11-17T18:20:23.507Z,22.53
2022-11-17T18:22:50.859Z,25.67
2022-11-17T18:25:18.265Z,26.00
2022-11-17T18:27:46.946Z,21.13
2022-11-17T18:30:14.573Z,21.37
2022-11-17T18:32:41.964Z,20.27
2022-11-17T18:35:09.780Z,21.33
2022-11-17T18:37:37.146Z,22.83
2022-11-17T18:40:05.100Z,23.30
2022-11-17T18:42:33.499Z,17.87
2022-11-17T18:45:02.198Z,20.33
2022-11-17T18:47:29.744Z,18.53
2022-11-17T18:49:57.176Z,20.87
2022-11-17T18:52:28.594Z,18.50
2022-11-17T18:54:58.733Z,20.77
2022-11-17T18:57:26.092Z,19.67
2022-11-17T18:59:53.451Z,20.00
2022-11-17T19:02:22.149Z,20.27
2022-11-17T19:04:49.512Z,22.10
2022-11-17T19:07:17.048Z,24.20
2022-11-17T19:09:44.455Z,20.33
2022-11-17T19:12:12.479Z,23.93
2022-11-17T19:14:39.850Z,20.30
2022-11-17T19:17:07.811Z,23.63
2022-11-17T19:19:36.695Z,21.33
2022-11-17T19:22:04.456Z,24.53
2022-11-17T19:24:31.920Z,19.67
2022-11-17T19:26:59.413Z,23.17
2022-11-17T19:29:26.801Z,23.57
2022-11-17T19:31:54.623Z,24.47
2022-11-17T19:34:22.111Z,23.00
2022-11-17T19:36:50.829Z,23.50
2022-11-17T19:39:18.537Z,23.27
2022-11-17T19:41:47.626Z,25.27
2022-11-17T19:44:15.159Z,23.00
2022-11-17T19:46:43.258Z,22.70
2022-11-17T19:49:12.774Z,24.57
2022-11-17T19:51:41.157Z,26.13
2022-11-17T19:54:13.299Z,25.07
2022-11-17T19:56:40.955Z,23.57
2022-11-17T19:59:13.951Z,23.93
2022-11-17T20:01:43.617Z,24.60
2022-11-17T20:04:11.173Z,25.50
2022-11-17T20:06:39.860Z,24.53
2022-11-17T20:09:08.994Z,25.73
2022-11-17T20:11:38.014Z,27.13
2022-11-17T20:14:06.236Z,26.17
2022-11-17T20:16:34.511Z,26.53
2022-11-17T20:19:02.999Z,25.07
2022-11-17T20:21:31.840Z,26.67
2022-11-17T20:24:01.078Z,28.07
2022-11-17T20:26:30.897Z,26.80
2022-11-17T20:29:00.511Z,24.00
2022-11-17T20:31:29.943Z,27.27
2022-11-17T20:34:00.545Z,26.87
2022-11-17T20:36:29.100Z,25.73
2022-11-17T20:38:58.009Z,25.17
2022-11-17T20:41:26.165Z,23.17
2022-11-17T20:43:55.436Z,23.73
2022-11-17T20:46:26.574Z,23.77
2022-11-17T20:48:54.556Z,24.73
2022-11-17T20:51:23.469Z,23.03
2022-11-17T20:53:54.506Z,24.77
2022-11-17T20:56:21.965Z,25.67
2022-11-17T20:58:50.177Z,23.03
2022-11-17T21:01:19.664Z,24.70
2022-11-17T21:03:49.354Z,24.80
2022-11-17T21:06:18.299Z,22.93
2022-11-17T21:08:47.962Z,28.20
2022-11-17T21:11:37.742Z,24.03
2022-11-17T21:14:06.894Z,27.00
2022-11-17T21:16:38.376Z,27.50
2022-11-17T21:19:12.074Z,23.83
2022-11-17T21:21:39.762Z,22.93
2022-11-17T21:24:07.885Z,25.30
2022-11-17T21:26:35.590Z,21.83
2022-11-17T21:29:06.693Z,25.27
2022-11-17T21:31:34.850Z,23.37
2022-11-17T21:34:05.189Z,21.87
2022-11-17T21:36:35.677Z,23.43
2022-11-17T21:39:03.171Z,24.57
2022-11-17T21:41:38.589Z,23.37
2022-11-17T21:44:06.627Z,24.57
2022-11-17T21:46:37.728Z,24.17
2022-11-17T21:49:05.317Z,24.17
2022-11-17T21:51:38.194Z,23.93
2022-11-17T21:54:08.358Z,23.37
2022-11-17T21:56:42.606Z,22.40
2022-11-17T21:59:12.870Z,21.83
2022-11-17T22:01:40.869Z,23.17
2022-11-17T22:04:08.350Z,22.20
2022-11-17T22:06:39.332Z,22.90
2022-11-17T22:09:06.842Z,23.00
2022-11-17T22:11:37.784Z,24.00
2022-11-17T22:14:08.086Z,23.77
2022-11-17T22:16:36.168Z,23.30
2022-11-17T22:19:03.901Z,24.50
2022-11-17T22:21:31.320Z,23.90
2022-11-17T22:24:00.564Z,23.67
2022-11-17T22:26:28.083Z,22.30
2022-11-17T22:28:56.837Z,24.50
2022-11-17T22:31:24.819Z,25.20
2022-11-17T22:33:52.400Z,22.47
2022-11-17T22:36:20.607Z,22.77
2022-11-17T22:38:51.221Z,22.73
2022-11-17T22:41:21.612Z,24.03
2022-11-17T22:43:50.664Z,22.10
2022-11-17T22:46:19.294Z,21.53
2022-11-17T22:48:47.136Z,21.70
2022-11-17T22:51:35.394Z,20.50
2022-11-17T22:54:02.798Z,20.80
2022-11-17T22:56:31.863Z,20.60
2022-11-17T22:58:59.948Z,22.40
2022-11-17T23:01:27.780Z,20.57
2022-11-17T23:03:55.339Z,20.47
2022-11-17T23:06:24.134Z,23.17
2022-11-17T23:08:51.699Z,22.50
2022-11-17T23:11:36.486Z,22.93
2022-11-17T23:14:07.770Z,22.77
2022-11-17T23:16:35.266Z,21.73
2022-11-17T23:19:02.694Z,22.03
2022-11-17T23:21:30.293Z,22.90
2022-11-17T23:23:57.809Z,21.27
2022-11-17T23:26:25.227Z,19.80
2022-11-17T23:28:52.857Z,17.40
2022-11-17T23:31:21.924Z,20.43
2022-11-17T23:33:49.671Z,20.93
2022-11-17T23:36:19.186Z,18.90
2022-11-17T23:38:47.038Z,16.67
2022-11-17T23:41:17.326Z,22.80
2022-11-17T23:43:44.776Z,28.20
2022-11-17T23:46:15.113Z,27.50
2022-11-17T23:48:44.612Z,28.13
2022-11-17T23:51:13.951Z,26.67
2022-11-17T23:53:41.985Z,26.37
2022-11-17T23:56:10.373Z,27.00
2022-11-17T23:58:38.115Z,27.77
